sensor_id;sensor_type;location;lat;lon;timestamp;temperature;humidity
36552;DHT22;22559;54.176;12.102;2022-08-19T00:01:42;22.10;99.90
36552;DHT22;22559;54.176;12.102;2022-08-19T00:04:11;22.20;99.90
36552;DHT22;22559;54.176;12.102;2022-08-19T00:06:40;22.20;99.90
36552;DHT22;22559;54.176;12.102;2022-08-19T00:09:08;22.20;99.90
36552;DHT22;22559;54.176;12.102;2022-08-19T00:11:35;22.20;99.90
36552;DHT22;22559;54.176;12.102;2022-08-19T00:14:04;22.30;99.90
36552;DHT22;22559;54.176;12.102;2022-08-19T00:16:30;22.20;99.90
36552;DHT22;22559;54.176;12.102;2022-08-19T00:18:56;22.20;99.90
36552;DHT22;22559;54.176;12.102;2022-08-19T00:21:26;22.20;99.90
36552;DHT22;22559;54.176;12.102;2022-08-19T00:23:53;22.20;99.90
36552;DHT22;22559;54.176;12.102;2022-08-19T00:26:19;22.10;99.90
36552;DHT22;22559;54.176;12.102;2022-08-19T00:28:45;22.10;99.90
36552;DHT22;22559;54.176;12.102;2022-08-19T00:31:11;22.00;99.90
36552;DHT22;22559;54.176;12.102;2022-08-19T00:33:37;22.00;99.90
36552;DHT22;22559;54.176;12.102;2022-08-19T00:36:06;21.90;99.90
36552;DHT22;22559;54.176;12.102;2022-08-19T00:38:33;21.90;99.90
36552;DHT22;22559;54.176;12.102;2022-08-19T00:40:59;21.80;99.90
36552;DHT22;22559;54.176;12.102;2022-08-19T00:43:26;21.80;99.90
36552;DHT22;22559;54.176;12.102;2022-08-19T00:45:53;21.80;99.90
36552;DHT22;22559;54.176;12.102;2022-08-19T00:48:20;21.70;99.90
36552;DHT22;22559;54.176;12.102;2022-08-19T00:50:48;21.80;99.90
36552;DHT22;22559;54.176;12.102;2022-08-19T00:53:16;21.70;99.90
36552;DHT22;22559;54.176;12.102;2022-08-19T00:55:46;21.70;99.90
36552;DHT22;22559;54.176;12.102;2022-08-19T00:58:15;21.70;99.90
36552;DHT22;22559;54.176;12.102;2022-08-19T01:00:41;21.70;99.90
36552;DHT22;22559;54.176;12.102;2022-08-19T01:03:11;21.70;99.90
36552;DHT22;22559;54.176;12.102;2022-08-19T01:05:37;21.70;99.90
36552;DHT22;22559;54.176;12.102;2022-08-19T01:08:06;21.60;99.90
36552;DHT22;22559;54.176;12.102;2022-08-19T01:10:43;21.60;99.90
36552;DHT22;22559;54.176;12.102;2022-08-19T01:13:11;21.50;99.90
36552;DHT22;22559;54.176;12.102;2022-08-19T01:15:43;21.50;99.90
36552;DHT22;22559;54.176;12.102;2022-08-19T01:18:11;21.50;99.90
36552;DHT22;22559;54.176;12.102;2022-08-19T01:20:39;21.50;99.90
36552;DHT22;22559;54.176;12.102;2022-08-19T01:23:05;21.50;99.90
36552;DHT22;22559;54.176;12.102;2022-08-19T01:25:35;21.40;99.90
36552;DHT22;22559;54.176;12.102;2022-08-19T01:28:01;21.40;99.90
36552;DHT22;22559;54.176;12.102;2022-08-19T01:30:30;21.40;99.90
36552;DHT22;22559;54.176;12.102;2022-08-19T01:32:57;21.40;99.90
36552;DHT22;22559;54.176;12.102;2022-08-19T01:35:27;21.40;99.90
36552;DHT22;22559;54.176;12.102;2022-08-19T01:37:58;21.40;99.90
36552;DHT22;22559;54.176;12.102;2022-08-19T01:40:26;21.40;99.90
36552;DHT22;22559;54.176;12.102;2022-08-19T01:42:54;21.40;99.90
36552;DHT22;22559;54.176;12.102;2022-08-19T01:45:22;21.40;99.90
36552;DHT22;22559;54.176;12.102;2022-08-19T01:47:48;21.40;99.90
36552;DHT22;22559;54.176;12.102;2022-08-19T01:50:14;21.30;99.90
36552;DHT22;22559;54.176;12.102;2022-08-19T01:52:42;21.30;99.90
36552;DHT22;22559;54.176;12.102;2022-08-19T01:55:13;21.20;99.90
36552;DHT22;22559;54.176;12.102;2022-08-19T01:57:42;21.20;99.90
36552;DHT22;22559;54.176;12.102;2022-08-19T02:00:11;21.30;99.90
36552;DHT22;22559;54.176;12.102;2022-08-19T02:02:38;21.30;99.90
36552;DHT22;22559;54.176;12.102;2022-08-19T02:05:05;21.20;99.90
36552;DHT22;22559;54.176;12.102;2022-08-19T02:07:32;21.20;99.90
36552;DHT22;22559;54.176;12.102;2022-08-19T02:09:58;21.10;99.90
36552;DHT22;22559;54.176;12.102;2022-08-19T02:12:23;21.00;99.90
36552;DHT22;22559;54.176;12.102;2022-08-19T02:14:49;20.90;99.90
36552;DHT22;22559;54.176;12.102;2022-08-19T02:17:15;20.80;99.90
36552;DHT22;22559;54.176;12.102;2022-08-19T02:19:40;20.70;99.90
36552;DHT22;22559;54.176;12.102;2022-08-19T02:22:06;20.70;99.90
36552;DHT22;22559;54.176;12.102;2022-08-19T02:24:32;20.70;99.90
36552;DHT22;22559;54.176;12.102;2022-08-19T02:26:58;20.70;99.90
36552;DHT22;22559;54.176;12.102;2022-08-19T02:29:24;20.70;99.90
36552;DHT22;22559;54.176;12.102;2022-08-19T02:31:50;20.60;99.90
36552;DHT22;22559;54.176;12.102;2022-08-19T02:34:16;20.70;99.90
36552;DHT22;22559;54.176;12.102;2022-08-19T02:36:42;20.60;99.90
36552;DHT22;22559;54.176;12.102;2022-08-19T02:39:08;20.60;99.90
36552;DHT22;22559;54.176;12.102;2022-08-19T02:41:34;20.50;99.90
36552;DHT22;22559;54.176;12.102;2022-08-19T02:44:02;20.40;99.90
36552;DHT22;22559;54.176;12.102;2022-08-19T02:46:31;20.40;99.90
36552;DHT22;22559;54.176;12.102;2022-08-19T02:49:00;20.40;99.90
36552;DHT22;22559;54.176;12.102;2022-08-19T02:51:30;20.30;99.90
36552;DHT22;22559;54.176;12.102;2022-08-19T02:53:56;20.40;99.90
36552;DHT22;22559;54.176;12.102;2022-08-19T02:56:23;20.50;99.90
36552;DHT22;22559;54.176;12.102;2022-08-19T02:58:50;20.60;99.90
36552;DHT22;22559;54.176;12.102;2022-08-19T03:01:30;20.60;99.90
36552;DHT22;22559;54.176;12.102;2022-08-19T03:03:58;20.60;99.90
36552;DHT22;22559;54.176;12.102;2022-08-19T03:06:24;20.60;99.90
36552;DHT22;22559;54.176;12.102;2022-08-19T03:08:52;20.70;99.90
36552;DHT22;22559;54.176;12.102;2022-08-19T03:11:23;20.70;99.90
36552;DHT22;22559;54.176;12.102;2022-08-19T03:13:49;20.70;99.90
36552;DHT22;22559;54.176;12.102;2022-08-19T03:16:17;20.70;99.90
36552;DHT22;22559;54.176;12.102;2022-08-19T03:18:42;20.70;99.90
36552;DHT22;22559;54.176;12.102;2022-08-19T03:21:08;20.60;99.90
36552;DHT22;22559;54.176;12.102;2022-08-19T03:23:34;20.60;99.90
36552;DHT22;22559;54.176;12.102;2022-08-19T03:26:04;20.60;99.90
36552;DHT22;22559;54.176;12.102;2022-08-19T03:28:30;20.60;99.90
36552;DHT22;22559;54.176;12.102;2022-08-19T03:30:59;20.70;99.90
36552;DHT22;22559;54.176;12.102;2022-08-19T03:33:26;20.70;99.90
36552;DHT22;22559;54.176;12.102;2022-08-19T03:36:22;20.60;99.90
36552;DHT22;22559;54.176;12.102;2022-08-19T03:38:50;20.60;99.90
36552;DHT22;22559;54.176;12.102;2022-08-19T03:41:21;20.50;99.90
36552;DHT22;22559;54.176;12.102;2022-08-19T03:43:47;20.50;99.90
36552;DHT22;22559;54.176;12.102;2022-08-19T03:46:16;20.40;99.90
36552;DHT22;22559;54.176;12.102;2022-08-19T03:48:43;20.40;99.90
36552;DHT22;22559;54.176;12.102;2022-08-19T03:51:20;20.40;99.90
36552;DHT22;22559;54.176;12.102;2022-08-19T03:53:47;20.40;99.90
36552;DHT22;22559;54.176;12.102;2022-08-19T03:56:13;20.40;99.90
36552;DHT22;22559;54.176;12.102;2022-08-19T03:58:40;20.40;99.90
36552;DHT22;22559;54.176;12.102;2022-08-19T04:01:11;20.30;99.90
36552;DHT22;22559;54.176;12.102;2022-08-19T04:03:38;20.40;99.90
36552;DHT22;22559;54.176;12.102;2022-08-19T04:08:39;20.30;99.90
36552;DHT22;22559;54.176;12.102;2022-08-19T04:11:15;20.30;99.90
36552;DHT22;22559;54.176;12.102;2022-08-19T04:13:41;20.30;99.90
36552;DHT22;22559;54.176;12.102;2022-08-19T04:16:10;20.40;99.90
36552;DHT22;22559;54.176;12.102;2022-08-19T04:18:37;20.50;99.90
36552;DHT22;22559;54.176;12.102;2022-08-19T04:21:04;20.50;99.90
36552;DHT22;22559;54.176;12.102;2022-08-19T04:23:31;20.60;99.90
36552;DHT22;22559;54.176;12.102;2022-08-19T04:25:57;20.60;99.90
36552;DHT22;22559;54.176;12.102;2022-08-19T04:28:23;20.70;99.90
36552;DHT22;22559;54.176;12.102;2022-08-19T04:30:51;20.70;99.90
36552;DHT22;22559;54.176;12.102;2022-08-19T04:33:19;20.80;99.90
36552;DHT22;22559;54.176;12.102;2022-08-19T04:35:47;20.90;99.90
36552;DHT22;22559;54.176;12.102;2022-08-19T04:38:14;20.90;99.90
36552;DHT22;22559;54.176;12.102;2022-08-19T04:40:43;20.90;99.90
36552;DHT22;22559;54.176;12.102;2022-08-19T04:43:28;20.90;99.90
36552;DHT22;22559;54.176;12.102;2022-08-19T04:45:54;21.00;99.90
36552;DHT22;22559;54.176;12.102;2022-08-19T04:48:20;21.00;99.90
36552;DHT22;22559;54.176;12.102;2022-08-19T04:50:52;21.10;99.90
36552;DHT22;22559;54.176;12.102;2022-08-19T04:53:26;21.10;99.90
36552;DHT22;22559;54.176;12.102;2022-08-19T04:55:58;21.00;99.90
36552;DHT22;22559;54.176;12.102;2022-08-19T04:58:26;21.10;99.90
36552;DHT22;22559;54.176;12.102;2022-08-19T05:00:53;21.10;99.90
36552;DHT22;22559;54.176;12.102;2022-08-19T05:03:19;21.10;99.90
36552;DHT22;22559;54.176;12.102;2022-08-19T05:05:47;21.20;99.90
36552;DHT22;22559;54.176;12.102;2022-08-19T05:08:19;21.20;99.90
36552;DHT22;22559;54.176;12.102;2022-08-19T05:10:46;21.20;99.90
36552;DHT22;22559;54.176;12.102;2022-08-19T05:13:12;21.20;99.90
36552;DHT22;22559;54.176;12.102;2022-08-19T05:15:38;21.30;99.90
36552;DHT22;22559;54.176;12.102;2022-08-19T05:18:04;21.30;99.90
36552;DHT22;22559;54.176;12.102;2022-08-19T05:20:48;21.20;99.90
36552;DHT22;22559;54.176;12.102;2022-08-19T05:23:32;21.30;99.90
36552;DHT22;22559;54.176;12.102;2022-08-19T05:25:58;21.40;99.90
36552;DHT22;22559;54.176;12.102;2022-08-19T05:28:23;21.50;99.90
36552;DHT22;22559;54.176;12.102;2022-08-19T05:30:49;21.50;99.90
36552;DHT22;22559;54.176;12.102;2022-08-19T05:33:17;21.50;99.90
36552;DHT22;22559;54.176;12.102;2022-08-19T05:35:43;21.60;99.90
36552;DHT22;22559;54.176;12.102;2022-08-19T05:38:09;21.50;99.90
36552;DHT22;22559;54.176;12.102;2022-08-19T05:40:37;21.50;99.90
36552;DHT22;22559;54.176;12.102;2022-08-19T05:43:05;21.40;99.90
36552;DHT22;22559;54.176;12.102;2022-08-19T05:45:31;21.50;99.90
36552;DHT22;22559;54.176;12.102;2022-08-19T05:47:57;21.50;99.90
36552;DHT22;22559;54.176;12.102;2022-08-19T05:50:24;21.50;99.90
36552;DHT22;22559;54.176;12.102;2022-08-19T05:52:52;21.50;99.90
36552;DHT22;22559;54.176;12.102;2022-08-19T05:55:18;21.60;99.90
36552;DHT22;22559;54.176;12.102;2022-08-19T05:57:46;21.50;99.90
36552;DHT22;22559;54.176;12.102;2022-08-19T06:00:12;21.60;99.90
36552;DHT22;22559;54.176;12.102;2022-08-19T06:02:39;21.50;99.90
36552;DHT22;22559;54.176;12.102;2022-08-19T06:05:06;21.50;99.90
36552;DHT22;22559;54.176;12.102;2022-08-19T06:07:32;21.40;99.90
36552;DHT22;22559;54.176;12.102;2022-08-19T06:09:58;21.40;99.90
36552;DHT22;22559;54.176;12.102;2022-08-19T06:12:24;21.50;99.90
36552;DHT22;22559;54.176;12.102;2022-08-19T06:14:58;21.60;99.90
36552;DHT22;22559;54.176;12.102;2022-08-19T06:17:24;21.50;99.90
36552;DHT22;22559;54.176;12.102;2022-08-19T06:19:51;21.50;99.90
36552;DHT22;22559;54.176;12.102;2022-08-19T06:22:17;21.60;99.90
36552;DHT22;22559;54.176;12.102;2022-08-19T06:24:42;21.60;99.90
36552;DHT22;22559;54.176;12.102;2022-08-19T06:27:08;21.60;99.90
36552;DHT22;22559;54.176;12.102;2022-08-19T06:29:34;21.60;99.90
36552;DHT22;22559;54.176;12.102;2022-08-19T06:32:01;21.60;99.90
36552;DHT22;22559;54.176;12.102;2022-08-19T06:34:29;21.60;99.90
36552;DHT22;22559;54.176;12.102;2022-08-19T06:36:56;21.60;99.90
36552;DHT22;22559;54.176;12.102;2022-08-19T06:39:28;21.60;99.90
36552;DHT22;22559;54.176;12.102;2022-08-19T06:41:57;21.50;99.90
36552;DHT22;22559;54.176;12.102;2022-08-19T06:44:26;21.50;99.90
36552;DHT22;22559;54.176;12.102;2022-08-19T06:46:53;21.50;99.90
36552;DHT22;22559;54.176;12.102;2022-08-19T06:49:18;21.50;99.90
36552;DHT22;22559;54.176;12.102;2022-08-19T06:51:45;21.40;99.90
36552;DHT22;22559;54.176;12.102;2022-08-19T06:54:16;21.40;99.90
36552;DHT22;22559;54.176;12.102;2022-08-19T06:56:43;21.40;99.90
36552;DHT22;22559;54.176;12.102;2022-08-19T06:59:13;21.40;99.90
36552;DHT22;22559;54.176;12.102;2022-08-19T07:01:45;21.30;99.90
36552;DHT22;22559;54.176;12.102;2022-08-19T07:04:14;21.10;99.90
36552;DHT22;22559;54.176;12.102;2022-08-19T07:06:41;21.10;99.90
36552;DHT22;22559;54.176;12.102;2022-08-19T07:09:08;21.10;99.90
36552;DHT22;22559;54.176;12.102;2022-08-19T07:11:34;21.10;99.90
36552;DHT22;22559;54.176;12.102;2022-08-19T07:14:00;21.00;99.90
36552;DHT22;22559;54.176;12.102;2022-08-19T07:16:26;20.90;99.90
36552;DHT22;22559;54.176;12.102;2022-08-19T07:18:53;20.90;99.90
36552;DHT22;22559;54.176;12.102;2022-08-19T07:21:22;20.90;99.90
36552;DHT22;22559;54.176;12.102;2022-08-19T07:23:50;21.00;99.90
36552;DHT22;22559;54.176;12.102;2022-08-19T07:26:19;20.90;99.90
36552;DHT22;22559;54.176;12.102;2022-08-19T07:28:47;21.00;99.90
36552;DHT22;22559;54.176;12.102;2022-08-19T07:31:15;21.00;99.90
36552;DHT22;22559;54.176;12.102;2022-08-19T07:33:44;20.90;99.90
36552;DHT22;22559;54.176;12.102;2022-08-19T07:36:11;20.90;99.90
36552;DHT22;22559;54.176;12.102;2022-08-19T07:38:39;21.00;99.90
36552;DHT22;22559;54.176;12.102;2022-08-19T07:41:06;20.90;99.90
36552;DHT22;22559;54.176;12.102;2022-08-19T07:43:32;21.00;99.90
36552;DHT22;22559;54.176;12.102;2022-08-19T07:45:58;21.00;99.90
36552;DHT22;22559;54.176;12.102;2022-08-19T07:48:27;20.90;99.90
36552;DHT22;22559;54.176;12.102;2022-08-19T07:51:01;20.90;99.90
36552;DHT22;22559;54.176;12.102;2022-08-19T07:53:28;20.90;99.90
36552;DHT22;22559;54.176;12.102;2022-08-19T07:55:54;20.90;99.90
36552;DHT22;22559;54.176;12.102;2022-08-19T07:58:21;20.90;99.90
36552;DHT22;22559;54.176;12.102;2022-08-19T08:00:49;20.80;99.90
36552;DHT22;22559;54.176;12.102;2022-08-19T08:03:17;20.80;99.90
36552;DHT22;22559;54.176;12.102;2022-08-19T08:05:43;20.80;99.90
36552;DHT22;22559;54.176;12.102;2022-08-19T08:08:28;20.80;99.90
36552;DHT22;22559;54.176;12.102;2022-08-19T08:11:14;20.80;99.90
36552;DHT22;22559;54.176;12.102;2022-08-19T08:13:40;20.70;99.90
36552;DHT22;22559;54.176;12.102;2022-08-19T08:16:06;20.70;99.90
36552;DHT22;22559;54.176;12.102;2022-08-19T08:18:33;20.60;99.90
36552;DHT22;22559;54.176;12.102;2022-08-19T08:20:59;20.60;99.90
36552;DHT22;22559;54.176;12.102;2022-08-19T08:23:25;20.50;99.90
36552;DHT22;22559;54.176;12.102;2022-08-19T08:25:53;20.40;99.90
36552;DHT22;22559;54.176;12.102;2022-08-19T08:28:20;20.50;99.90
36552;DHT22;22559;54.176;12.102;2022-08-19T08:30:47;20.50;99.90
36552;DHT22;22559;54.176;12.102;2022-08-19T08:33:14;20.50;99.90
36552;DHT22;22559;54.176;12.102;2022-08-19T08:35:42;20.60;99.90
36552;DHT22;22559;54.176;12.102;2022-08-19T08:38:08;20.60;99.90
36552;DHT22;22559;54.176;12.102;2022-08-19T08:43:30;20.70;99.90
36552;DHT22;22559;54.176;12.102;2022-08-19T08:48:53;20.80;99.90
36552;DHT22;22559;54.176;12.102;2022-08-19T08:51:32;20.90;99.90
36552;DHT22;22559;54.176;12.102;2022-08-19T08:54:00;20.90;99.90
36552;DHT22;22559;54.176;12.102;2022-08-19T08:56:26;20.90;99.90
36552;DHT22;22559;54.176;12.102;2022-08-19T08:59:34;20.90;99.90
36552;DHT22;22559;54.176;12.102;2022-08-19T09:01:51;21.00;99.90
36552;DHT22;22559;54.176;12.102;2022-08-19T09:04:17;21.10;99.90
36552;DHT22;22559;54.176;12.102;2022-08-19T09:07:12;21.10;99.90
36552;DHT22;22559;54.176;12.102;2022-08-19T09:09:45;21.10;99.90
36552;DHT22;22559;54.176;12.102;2022-08-19T09:14:55;21.10;99.90
36552;DHT22;22559;54.176;12.102;2022-08-19T09:17:24;21.10;99.90
36552;DHT22;22559;54.176;12.102;2022-08-19T09:20:25;21.10;99.90
36552;DHT22;22559;54.176;12.102;2022-08-19T09:22:50;21.20;99.90
36552;DHT22;22559;54.176;12.102;2022-08-19T09:25:18;21.10;99.90
36552;DHT22;22559;54.176;12.102;2022-08-19T09:27:45;21.10;99.90
36552;DHT22;22559;54.176;12.102;2022-08-19T09:30:24;21.00;99.90
36552;DHT22;22559;54.176;12.102;2022-08-19T09:32:51;21.00;99.90
36552;DHT22;22559;54.176;12.102;2022-08-19T09:35:26;21.10;99.90
36552;DHT22;22559;54.176;12.102;2022-08-19T09:37:52;21.00;99.90
36552;DHT22;22559;54.176;12.102;2022-08-19T09:40:19;21.00;99.90
36552;DHT22;22559;54.176;12.102;2022-08-19T09:42:45;21.00;99.90
36552;DHT22;22559;54.176;12.102;2022-08-19T09:45:16;21.00;99.90
36552;DHT22;22559;54.176;12.102;2022-08-19T09:47:42;21.10;99.90
36552;DHT22;22559;54.176;12.102;2022-08-19T09:50:11;21.10;99.90
36552;DHT22;22559;54.176;12.102;2022-08-19T09:52:37;21.10;99.90
36552;DHT22;22559;54.176;12.102;2022-08-19T09:55:05;21.10;99.90
36552;DHT22;22559;54.176;12.102;2022-08-19T09:57:31;21.10;99.90
36552;DHT22;22559;54.176;12.102;2022-08-19T09:59:57;21.20;99.90
36552;DHT22;22559;54.176;12.102;2022-08-19T10:02:23;21.10;99.90
36552;DHT22;22559;54.176;12.102;2022-08-19T10:04:50;21.10;99.90
36552;DHT22;22559;54.176;12.102;2022-08-19T10:07:34;21.20;99.90
36552;DHT22;22559;54.176;12.102;2022-08-19T10:10:02;21.20;99.90
36552;DHT22;22559;54.176;12.102;2022-08-19T10:12:27;21.20;99.90
36552;DHT22;22559;54.176;12.102;2022-08-19T10:14:53;21.20;99.90
36552;DHT22;22559;54.176;12.102;2022-08-19T10:17:19;21.20;99.90
36552;DHT22;22559;54.176;12.102;2022-08-19T10:19:45;21.20;99.90
36552;DHT22;22559;54.176;12.102;2022-08-19T10:22:11;21.20;99.90
36552;DHT22;22559;54.176;12.102;2022-08-19T10:24:39;21.40;99.90
36552;DHT22;22559;54.176;12.102;2022-08-19T10:27:05;21.30;99.90
36552;DHT22;22559;54.176;12.102;2022-08-19T10:29:31;21.30;99.90
36552;DHT22;22559;54.176;12.102;2022-08-19T10:31:58;21.30;99.90
36552;DHT22;22559;54.176;12.102;2022-08-19T10:34:25;21.30;99.90
36552;DHT22;22559;54.176;12.102;2022-08-19T10:36:51;21.20;99.90
36552;DHT22;22559;54.176;12.102;2022-08-19T10:39:17;21.10;99.90
36552;DHT22;22559;54.176;12.102;2022-08-19T10:41:42;21.20;99.90
36552;DHT22;22559;54.176;12.102;2022-08-19T10:44:11;21.20;99.90
36552;DHT22;22559;54.176;12.102;2022-08-19T10:46:40;21.30;99.90
36552;DHT22;22559;54.176;12.102;2022-08-19T10:49:11;21.20;99.90
36552;DHT22;22559;54.176;12.102;2022-08-19T10:51:38;21.30;99.90
36552;DHT22;22559;54.176;12.102;2022-08-19T10:54:23;21.40;99.90
36552;DHT22;22559;54.176;12.102;2022-08-19T10:57:08;21.30;99.90
36552;DHT22;22559;54.176;12.102;2022-08-19T10:59:34;21.30;99.90
36552;DHT22;22559;54.176;12.102;2022-08-19T11:02:02;21.40;99.90
36552;DHT22;22559;54.176;12.102;2022-08-19T11:04:28;21.50;99.90
36552;DHT22;22559;54.176;12.102;2022-08-19T11:06:54;21.50;99.90
36552;DHT22;22559;54.176;12.102;2022-08-19T11:09:22;21.50;99.90
36552;DHT22;22559;54.176;12.102;2022-08-19T11:11:53;21.50;99.90
36552;DHT22;22559;54.176;12.102;2022-08-19T11:14:19;21.50;99.90
36552;DHT22;22559;54.176;12.102;2022-08-19T11:16:48;21.60;99.90
36552;DHT22;22559;54.176;12.102;2022-08-19T11:19:14;21.50;99.90
36552;DHT22;22559;54.176;12.102;2022-08-19T11:21:43;21.40;99.90
36552;DHT22;22559;54.176;12.102;2022-08-19T11:24:21;21.40;99.90
36552;DHT22;22559;54.176;12.102;2022-08-19T11:26:49;21.30;99.90
36552;DHT22;22559;54.176;12.102;2022-08-19T11:29:16;21.30;99.90
36552;DHT22;22559;54.176;12.102;2022-08-19T11:31:46;21.30;99.90
36552;DHT22;22559;54.176;12.102;2022-08-19T11:34:18;21.30;99.90
36552;DHT22;22559;54.176;12.102;2022-08-19T11:36:46;21.30;99.90
36552;DHT22;22559;54.176;12.102;2022-08-19T11:39:14;21.30;99.90
36552;DHT22;22559;54.176;12.102;2022-08-19T11:41:40;21.30;99.90
36552;DHT22;22559;54.176;12.102;2022-08-19T11:44:06;21.30;99.90
36552;DHT22;22559;54.176;12.102;2022-08-19T11:46:34;21.30;99.90
36552;DHT22;22559;54.176;12.102;2022-08-19T11:49:01;21.30;99.90
36552;DHT22;22559;54.176;12.102;2022-08-19T11:51:28;21.40;99.90
36552;DHT22;22559;54.176;12.102;2022-08-19T11:53:56;21.40;99.90
36552;DHT22;22559;54.176;12.102;2022-08-19T11:56:22;21.30;99.90
36552;DHT22;22559;54.176;12.102;2022-08-19T11:58:49;21.30;99.90
36552;DHT22;22559;54.176;12.102;2022-08-19T12:01:17;21.30;99.90
36552;DHT22;22559;54.176;12.102;2022-08-19T12:03:44;21.30;99.90
36552;DHT22;22559;54.176;12.102;2022-08-19T12:06:13;21.30;99.90
36552;DHT22;22559;54.176;12.102;2022-08-19T12:08:43;21.30;99.90
36552;DHT22;22559;54.176;12.102;2022-08-19T12:11:10;21.30;99.90
36552;DHT22;22559;54.176;12.102;2022-08-19T12:13:37;21.30;99.90
36552;DHT22;22559;54.176;12.102;2022-08-19T12:16:11;21.30;99.90
36552;DHT22;22559;54.176;12.102;2022-08-19T12:18:41;21.30;99.90
36552;DHT22;22559;54.176;12.102;2022-08-19T12:21:21;21.30;99.90
36552;DHT22;22559;54.176;12.102;2022-08-19T12:23:50;21.40;99.90
36552;DHT22;22559;54.176;12.102;2022-08-19T12:26:17;21.30;99.90
36552;DHT22;22559;54.176;12.102;2022-08-19T12:28:43;21.30;99.90
36552;DHT22;22559;54.176;12.102;2022-08-19T12:31:10;21.10;99.90
36552;DHT22;22559;54.176;12.102;2022-08-19T12:33:39;21.00;99.90
36552;DHT22;22559;54.176;12.102;2022-08-19T12:36:08;21.00;99.90
36552;DHT22;22559;54.176;12.102;2022-08-19T12:38:35;20.90;99.90
36552;DHT22;22559;54.176;12.102;2022-08-19T12:41:01;20.90;99.90
36552;DHT22;22559;54.176;12.102;2022-08-19T12:43:30;20.80;99.90
36552;DHT22;22559;54.176;12.102;2022-08-19T12:45:56;20.80;99.90
36552;DHT22;22559;54.176;12.102;2022-08-19T12:48:23;20.80;99.90
36552;DHT22;22559;54.176;12.102;2022-08-19T12:50:48;20.80;99.90
36552;DHT22;22559;54.176;12.102;2022-08-19T12:53:15;20.80;99.90
36552;DHT22;22559;54.176;12.102;2022-08-19T12:55:41;20.80;99.90
36552;DHT22;22559;54.176;12.102;2022-08-19T12:58:08;20.90;99.90
36552;DHT22;22559;54.176;12.102;2022-08-19T13:00:34;20.90;99.90
36552;DHT22;22559;54.176;12.102;2022-08-19T13:03:00;21.00;99.90
36552;DHT22;22559;54.176;12.102;2022-08-19T13:05:29;21.00;99.90
36552;DHT22;22559;54.176;12.102;2022-08-19T13:07:57;20.90;99.90
36552;DHT22;22559;54.176;12.102;2022-08-19T13:10:25;21.00;99.90
36552;DHT22;22559;54.176;12.102;2022-08-19T13:12:53;21.00;99.90
36552;DHT22;22559;54.176;12.102;2022-08-19T13:15:21;21.00;99.90
36552;DHT22;22559;54.176;12.102;2022-08-19T13:17:48;21.10;99.90
36552;DHT22;22559;54.176;12.102;2022-08-19T13:20:17;21.10;99.90
36552;DHT22;22559;54.176;12.102;2022-08-19T13:22:42;21.20;99.90
36552;DHT22;22559;54.176;12.102;2022-08-19T13:25:11;21.20;99.90
36552;DHT22;22559;54.176;12.102;2022-08-19T13:27:37;21.20;99.90
36552;DHT22;22559;54.176;12.102;2022-08-19T13:30:07;21.30;99.90
36552;DHT22;22559;54.176;12.102;2022-08-19T13:32:52;21.20;99.90
36552;DHT22;22559;54.176;12.102;2022-08-19T13:35:38;21.10;99.90
36552;DHT22;22559;54.176;12.102;2022-08-19T13:38:04;21.10;99.90
36552;DHT22;22559;54.176;12.102;2022-08-19T13:40:31;21.10;99.90
36552;DHT22;22559;54.176;12.102;2022-08-19T13:43:00;21.10;99.90
36552;DHT22;22559;54.176;12.102;2022-08-19T13:45:27;21.00;99.90
36552;DHT22;22559;54.176;12.102;2022-08-19T13:47:54;21.00;99.90
36552;DHT22;22559;54.176;12.102;2022-08-19T13:50:24;21.00;99.90
36552;DHT22;22559;54.176;12.102;2022-08-19T13:52:51;21.00;99.90
36552;DHT22;22559;54.176;12.102;2022-08-19T13:55:17;21.00;99.90
36552;DHT22;22559;54.176;12.102;2022-08-19T13:57:43;21.00;99.90
36552;DHT22;22559;54.176;12.102;2022-08-19T14:00:15;21.00;99.90
36552;DHT22;22559;54.176;12.102;2022-08-19T14:02:43;21.20;99.90
36552;DHT22;22559;54.176;12.102;2022-08-19T14:05:12;21.30;99.90
36552;DHT22;22559;54.176;12.102;2022-08-19T14:07:38;21.20;99.90
36552;DHT22;22559;54.176;12.102;2022-08-19T14:10:05;21.20;99.90
36552;DHT22;22559;54.176;12.102;2022-08-19T14:12:32;21.30;99.90
36552;DHT22;22559;54.176;12.102;2022-08-19T14:14:58;21.40;99.90
36552;DHT22;22559;54.176;12.102;2022-08-19T14:17:24;21.50;99.90
36552;DHT22;22559;54.176;12.102;2022-08-19T14:19:59;21.60;99.90
36552;DHT22;22559;54.176;12.102;2022-08-19T14:22:32;21.60;99.90
36552;DHT22;22559;54.176;12.102;2022-08-19T14:24:57;21.60;99.90
36552;DHT22;22559;54.176;12.102;2022-08-19T14:27:23;21.60;99.90
36552;DHT22;22559;54.176;12.102;2022-08-19T14:29:51;21.70;99.90
36552;DHT22;22559;54.176;12.102;2022-08-19T14:32:17;21.70;99.90
36552;DHT22;22559;54.176;12.102;2022-08-19T14:34:43;21.80;99.90
36552;DHT22;22559;54.176;12.102;2022-08-19T14:37:11;21.80;99.90
36552;DHT22;22559;54.176;12.102;2022-08-19T14:39:39;21.80;99.90
36552;DHT22;22559;54.176;12.102;2022-08-19T14:42:09;21.80;99.90
36552;DHT22;22559;54.176;12.102;2022-08-19T14:44:35;21.60;99.90
36552;DHT22;22559;54.176;12.102;2022-08-19T14:47:01;21.60;99.90
36552;DHT22;22559;54.176;12.102;2022-08-19T14:49:27;21.50;99.90
36552;DHT22;22559;54.176;12.102;2022-08-19T14:51:52;21.40;99.90
36552;DHT22;22559;54.176;12.102;2022-08-19T14:54:18;21.30;99.90
36552;DHT22;22559;54.176;12.102;2022-08-19T14:56:44;21.50;99.90
36552;DHT22;22559;54.176;12.102;2022-08-19T14:59:09;21.60;99.90
36552;DHT22;22559;54.176;12.102;2022-08-19T15:01:35;21.60;99.90
36552;DHT22;22559;54.176;12.102;2022-08-19T15:04:01;21.60;99.90
36552;DHT22;22559;54.176;12.102;2022-08-19T15:06:27;21.70;99.90
36552;DHT22;22559;54.176;12.102;2022-08-19T15:08:53;21.60;99.90
36552;DHT22;22559;54.176;12.102;2022-08-19T15:11:21;21.60;99.90
36552;DHT22;22559;54.176;12.102;2022-08-19T15:13:48;21.60;99.90
36552;DHT22;22559;54.176;12.102;2022-08-19T15:16:14;21.50;99.90
36552;DHT22;22559;54.176;12.102;2022-08-19T15:18:42;21.40;99.90
36552;DHT22;22559;54.176;12.102;2022-08-19T15:21:11;21.40;99.90
36552;DHT22;22559;54.176;12.102;2022-08-19T15:23:38;21.40;99.90
36552;DHT22;22559;54.176;12.102;2022-08-19T15:26:04;21.40;99.90
36552;DHT22;22559;54.176;12.102;2022-08-19T15:28:30;21.40;99.90
36552;DHT22;22559;54.176;12.102;2022-08-19T15:30:57;21.40;99.90
36552;DHT22;22559;54.176;12.102;2022-08-19T15:33:23;21.40;99.90